createdAt,value
2019-05-05T00:00:28.023Z,79.72
2019-05-05T00:01:08.733Z,80.1
2019-05-05T00:02:29.601Z,80.86
2019-05-05T00:03:10.175Z,80
2019-05-05T00:03:50.702Z,79.52
2019-05-05T00:04:31.093Z,80.19
2019-05-05T00:05:11.597Z,79.81
2019-05-05T00:05:51.961Z,80.29
2019-05-05T00:06:34.227Z,79.14
2019-05-05T00:07:14.694Z,79.05
2019-05-05T00:07:54.168Z,79.14
2019-05-05T00:08:35.118Z,79.43
2019-05-05T00:09:14.792Z,79.33
2019-05-05T00:09:55.309Z,79.05
2019-05-05T00:10:35.638Z,79.43
2019-05-05T00:11:16.214Z,80
2019-05-05T00:11:56.646Z,80.86
2019-05-05T00:13:17.514Z,81.24
2019-05-05T00:13:57.851Z,80.76
2019-05-05T00:14:38.370Z,80.19
2019-05-05T00:15:19.166Z,79.91
2019-05-05T00:15:59.959Z,79.62
2019-05-05T00:16:40.456Z,79.33
2019-05-05T00:17:21.079Z,78.72
2019-05-05T00:18:01.473Z,79.39
2019-05-05T00:18:41.971Z,80.63
2019-05-05T00:19:30.567Z,80.53
2019-05-05T00:20:05.055Z,80.63
2019-05-05T00:20:44.632Z,80.57
2019-05-05T00:21:24.545Z,80.57
2019-05-05T00:22:04.756Z,80.53
2019-05-05T00:22:45.527Z,81.2
2019-05-05T00:23:25.712Z,80.24
2019-05-05T00:24:06.882Z,81.2
2019-05-05T00:24:47.222Z,81.01
2019-05-05T00:25:28.552Z,80.24
2019-05-05T00:26:09.163Z,80.05
2019-05-05T00:26:49.677Z,80.53
2019-05-05T00:27:30.397Z,81.2
2019-05-05T00:28:14.286Z,81.01
2019-05-05T00:28:55.152Z,80.53
2019-05-05T00:29:34.679Z,80.72
2019-05-05T00:30:14.358Z,80.82
2019-05-05T00:30:55.347Z,81.58
2019-05-05T00:31:36.274Z,82.15
2019-05-05T00:32:16.608Z,81.38
2019-05-05T00:32:57.870Z,81.2
2019-05-05T00:33:39.068Z,81.48
2019-05-05T00:34:20.387Z,80.91
2019-05-05T00:35:01.158Z,80.24
2019-05-05T00:35:41.891Z,80.44
2019-05-05T00:36:24.553Z,80.34
2019-05-05T00:37:04.590Z,80.24
2019-05-05T00:37:45.031Z,80.24
2019-05-05T00:38:25.020Z,81.01
2019-05-05T00:39:05.350Z,81.58
2019-05-05T00:39:46.053Z,81.58
2019-05-05T00:40:26.710Z,80.44
2019-05-05T00:41:09.155Z,81.1
2019-05-05T00:41:50.037Z,81.2
2019-05-05T00:42:30.577Z,81.48
2019-05-05T00:46:44.821Z,81.1
2019-05-05T00:47:34.278Z,80.24
2019-05-05T00:56:35.846Z,79.3
2019-05-05T00:57:17.150Z,79.11
2019-05-05T00:57:59.739Z,79.68
2019-05-05T00:58:40.831Z,79.58
2019-05-05T00:59:21.128Z,79.58
2019-05-05T01:00:05.116Z,78.72
2019-05-05T01:00:44.744Z,79.39
2019-05-05T01:01:25.180Z,79.77
2019-05-05T01:02:08.382Z,80.05
2019-05-05T01:02:48.887Z,79.68
2019-05-05T01:03:29.219Z,80.44
2019-05-05T01:04:09.696Z,80.91
2019-05-05T01:04:50.092Z,81.2
2019-05-05T01:05:30.733Z,81.67
2019-05-05T01:06:14.897Z,80.91
2019-05-05T01:06:54.485Z,81.1
2019-05-05T01:07:35.106Z,80.72
2019-05-05T01:08:15.198Z,81.29
2019-05-05T01:08:55.740Z,80.34
2019-05-05T01:09:36.714Z,81.01
2019-05-05T01:10:24.282Z,80.24
2019-05-05T01:11:00.257Z,80.58
2019-05-05T01:11:40.948Z,80.3
2019-05-05T01:12:24.299Z,81.38
2019-05-05T01:13:04.699Z,80.96
2019-05-05T01:13:48.237Z,81.16
2019-05-05T01:14:28.645Z,80.87
2019-05-05T01:15:09.482Z,80.96
2019-05-05T01:15:49.839Z,81.25
2019-05-05T01:16:30.439Z,80.87
2019-05-05T01:17:14.485Z,82.2
2019-05-05T01:17:55.081Z,81.73
2019-05-05T01:18:35.096Z,81.35
2019-05-05T01:20:02.943Z,82.1
2019-05-05T01:20:38.214Z,81.73
2019-05-05T01:21:18.756Z,81.54
2019-05-05T01:21:59.132Z,81.16
2019-05-05T01:22:39.649Z,82.2
2019-05-05T01:23:20.003Z,82.49
2019-05-05T01:24:00.339Z,82.49
2019-05-05T01:24:40.719Z,81.35
2019-05-05T01:25:21.112Z,80.68
2019-05-05T01:26:01.582Z,81.44
2019-05-05T01:26:41.977Z,82.15
2019-05-05T01:27:22.301Z,81.54
2019-05-05T01:28:04.768Z,80.91
2019-05-05T01:28:44.743Z,80.91
2019-05-05T01:29:25.224Z,81.01
2019-05-05T01:30:04.955Z,80.53
2019-05-05T01:30:45.367Z,81.06
2019-05-05T01:31:25.705Z,81.38
2019-05-05T01:32:06.115Z,79.54
2019-05-05T01:32:46.507Z,80.4
2019-05-05T01:33:27.084Z,80.87
2019-05-05T01:34:07.308Z,79.92
2019-05-05T01:34:47.826Z,79.35
2019-05-05T01:35:28.221Z,79.63
2019-05-05T01:36:08.646Z,80.58
2019-05-05T01:36:49.019Z,81.54
2019-05-05T01:37:29.388Z,81.44
2019-05-05T01:38:10.506Z,80.68
2019-05-05T01:38:55.202Z,80.82
2019-05-05T01:39:34.609Z,80.72
2019-05-05T01:40:17.457Z,79.73
2019-05-05T01:40:59.464Z,79.49
2019-05-05T01:41:41.702Z,79.86
2019-05-05T01:42:24.612Z,80.24
2019-05-05T01:43:05.281Z,79.39
2019-05-05T01:43:45.291Z,79.11
2019-05-05T01:44:28.869Z,79.68
2019-05-05T01:45:14.746Z,79.58
2019-05-05T01:45:54.624Z,79.2
2019-05-05T01:46:35.276Z,79.58
2019-05-05T01:47:14.914Z,79.58
2019-05-05T01:47:55.465Z,80.15
2019-05-05T01:48:36.698Z,79.3
2019-05-05T01:49:19.117Z,79.68
2019-05-05T01:49:59.551Z,78.91
2019-05-05T01:50:39.887Z,78.72
2019-05-05T01:51:20.277Z,79.58
2019-05-05T01:52:00.718Z,79.39
2019-05-05T01:52:41.138Z,79.2
2019-05-05T01:53:21.506Z,79.58
2019-05-05T01:54:01.893Z,78.91
2019-05-05T01:54:44.370Z,78.91
2019-05-05T01:55:22.713Z,78.53
2019-05-05T01:56:04.820Z,79.11
2019-05-05T01:56:44.502Z,79.11
2019-05-05T01:57:25.154Z,79.3
2019-05-05T01:58:04.783Z,79.2
2019-05-05T01:58:44.700Z,79.11
2019-05-05T01:59:25.108Z,79.49
2019-05-05T02:00:05.477Z,79.39
2019-05-05T02:00:45.862Z,79.92
2019-05-05T02:01:26.270Z,79.83
2019-05-05T02:02:06.667Z,80.3
2019-05-05T02:02:47.054Z,80.3
2019-05-05T02:03:27.415Z,80.77
2019-05-05T02:04:07.838Z,81.25
2019-05-05T02:12:51.110Z,80.87
2019-05-05T02:13:40.853Z,81.54
2019-05-05T02:14:29.472Z,81.54
2019-05-05T02:15:22.269Z,81.92
2019-05-05T02:16:01.293Z,82.01
2019-05-05T02:16:49.636Z,82.68
2019-05-05T02:18:45.939Z,83.15
2019-05-05T02:19:35.558Z,83.15
2019-05-05T02:26:11.411Z,81.63
2019-05-05T02:26:51.457Z,81.25
2019-05-05T02:27:31.907Z,82.39
2019-05-05T02:28:12.296Z,82.68
2019-05-05T02:28:54.216Z,81.82
2019-05-05T02:29:35.125Z,82.01
2019-05-05T02:30:16.129Z,81.73
2019-05-05T02:30:54.980Z,82.29
2019-05-05T02:31:35.952Z,82.2
2019-05-05T02:32:15.718Z,82.29
2019-05-05T02:33:35.592Z,82.39
2019-05-05T02:34:16.531Z,82.01
2019-05-05T02:34:56.590Z,82.1
2019-05-05T02:35:38.603Z,81.35
2019-05-05T02:36:18.981Z,80.58
2019-05-05T02:36:59.385Z,81.44
2019-05-05T02:37:39.795Z,81.06
2019-05-05T02:38:20.192Z,81.63
2019-05-05T02:39:00.598Z,82.39
2019-05-05T02:39:45.729Z,81.73
2019-05-05T02:40:24.273Z,81.73
2019-05-05T02:41:04.621Z,82.1
2019-05-05T02:41:44.975Z,81.92
2019-05-05T02:42:24.985Z,81.44
2019-05-05T02:43:05.457Z,81.54
2019-05-05T02:43:44.925Z,82.01
2019-05-05T02:44:25.444Z,81.77
2019-05-05T02:45:05.344Z,81.16
2019-05-05T02:46:25.582Z,81.16
2019-05-05T02:47:05.549Z,80.4
2019-05-05T02:47:45.913Z,80.49
2019-05-05T02:49:06.625Z,79.83
2019-05-05T02:49:47.095Z,79.92
2019-05-05T02:50:27.460Z,79.73
2019-05-05T02:51:07.832Z,80.3
2019-05-05T02:51:48.337Z,80.02
2019-05-05T02:52:28.706Z,80.49
2019-05-05T02:53:09.128Z,80.3
2019-05-05T02:53:50.200Z,80.02
2019-05-05T02:54:30.458Z,80.02
2019-05-05T02:55:10.641Z,80.35
2019-05-05T02:55:53.402Z,80.45
2019-05-05T02:56:34.171Z,80.74
2019-05-05T02:57:13.516Z,82.07
2019-05-05T02:57:55.939Z,82.54
2019-05-05T02:58:35.996Z,83.2
2019-05-05T02:59:20.862Z,82.82
2019-05-05T03:00:01.245Z,83.97
2019-05-05T03:00:43.588Z,84.72
2019-05-05T03:01:23.924Z,84.72
2019-05-05T03:02:04.259Z,84.06
2019-05-05T03:02:43.523Z,83.59
2019-05-05T03:03:23.927Z,83.59
2019-05-05T03:04:03.891Z,83.59
2019-05-05T03:04:44.409Z,83.11
2019-05-05T03:05:24.683Z,82.45
2019-05-05T03:06:04.982Z,82.64
2019-05-05T03:06:45.395Z,82.82
2019-05-05T03:07:25.800Z,83.68
2019-05-05T03:08:06.624Z,83.87
2019-05-05T03:08:47.087Z,83.78
2019-05-05T03:09:27.422Z,83.59
2019-05-05T03:10:08.627Z,83.78
2019-05-05T03:10:48.479Z,83.97
2019-05-05T03:11:30.181Z,85.01
2019-05-05T03:12:11.049Z,85.86
2019-05-05T03:12:54.197Z,86.43
2019-05-05T03:13:34.451Z,86.34
2019-05-05T03:14:14.359Z,86.72
2019-05-05T03:14:54.440Z,85.96
2019-05-05T03:15:34.828Z,85.58
2019-05-05T03:16:15.178Z,85.11
2019-05-05T03:16:57.307Z,85.86
2019-05-05T03:17:37.761Z,84.91
2019-05-05T03:18:18.693Z,84.06
2019-05-05T03:18:59.140Z,84.82
2019-05-05T03:19:39.573Z,85.3
2019-05-05T03:20:20.958Z,84.91
2019-05-05T03:21:04.597Z,84.25
2019-05-05T03:21:41.664Z,83.87
2019-05-05T03:22:23.654Z,83.11
2019-05-05T03:23:04.162Z,83.68
2019-05-05T03:23:43.989Z,85.72
2019-05-05T03:24:23.622Z,85.34
2019-05-05T03:25:04.597Z,84.95
2019-05-05T03:25:44.184Z,84.1
2019-05-05T03:26:24.643Z,83.15
2019-05-05T03:27:45.423Z,83.44
2019-05-05T03:28:25.793Z,84.01
2019-05-05T03:29:06.166Z,83.25
2019-05-05T03:29:46.601Z,82.2
2019-05-05T03:30:27.022Z,82.77
2019-05-05T03:31:07.355Z,82.1
2019-05-05T03:31:47.704Z,83.34
2019-05-05T03:32:28.113Z,83.53
2019-05-05T03:33:15.894Z,83.06
2019-05-05T03:33:54.869Z,81.82
2019-05-05T03:35:14.252Z,83.06
2019-05-05T03:35:54.721Z,82.1
2019-05-05T03:36:35.026Z,82.68
2019-05-05T03:37:15.477Z,82.01
2019-05-05T03:37:55.803Z,82.29
2019-05-05T03:38:36.181Z,82.2
2019-05-05T03:39:16.638Z,81.35
2019-05-05T03:39:56.999Z,80.21
2019-05-05T03:40:37.395Z,79.73
2019-05-05T03:41:17.777Z,80.11
2019-05-05T03:41:58.361Z,81.35
2019-05-05T03:42:38.760Z,82.1
2019-05-05T03:43:19.132Z,81.92
2019-05-05T03:43:59.527Z,82.2
2019-05-05T03:44:39.910Z,82.2
2019-05-05T03:45:23.427Z,82.58
2019-05-05T03:46:01.220Z,81.63
2019-05-05T03:46:43.652Z,80.58
2019-05-05T03:48:06.203Z,80.11
2019-05-05T03:48:46.666Z,80.02
2019-05-05T03:49:27.349Z,80.77
2019-05-05T03:50:08.288Z,81.16
2019-05-05T03:50:48.640Z,82.01
2019-05-05T03:51:29.044Z,82.29
2019-05-05T03:53:24.712Z,83.25
2019-05-05T03:54:23.978Z,83.15
2019-05-05T03:55:16.371Z,83.25
2019-05-05T03:56:27.914Z,82.39
2019-05-05T03:59:18.007Z,83.44
2019-05-05T03:59:56.945Z,83.34
2019-05-05T04:00:37.374Z,83.25
2019-05-05T04:01:17.720Z,82.15
2019-05-05T04:02:00.040Z,80.77
2019-05-05T04:03:20.849Z,81.01
2019-05-05T04:04:03.267Z,80.72
2019-05-05T04:04:41.637Z,81.38
2019-05-05T04:05:23.527Z,81.67
2019-05-05T04:06:04.362Z,81.77
2019-05-05T04:06:44.551Z,81.2
2019-05-05T04:07:24.191Z,81.1
2019-05-05T04:08:03.992Z,80.34
2019-05-05T04:08:44.533Z,79.68
2019-05-05T04:09:24.514Z,79.49
2019-05-05T04:10:04.935Z,79.86
2019-05-05T04:10:45.347Z,80.34
2019-05-05T04:11:25.662Z,79.86
2019-05-05T04:12:06.070Z,79.86
2019-05-05T04:12:46.457Z,79.49
2019-05-05T04:13:26.879Z,80.24
2019-05-05T04:14:07.266Z,79.68
2019-05-05T04:14:47.671Z,79.2
2019-05-05T04:15:28.076Z,78.91
2019-05-05T04:16:08.501Z,79.11
2019-05-05T04:16:48.918Z,79.58
2019-05-05T04:17:29.360Z,79.3
2019-05-05T04:18:09.772Z,79.77
2019-05-05T04:19:30.527Z,80.05
2019-05-05T04:20:10.958Z,80.24
2019-05-05T04:20:53.290Z,81.2
2019-05-05T04:21:34.355Z,81.2
2019-05-05T04:22:13.515Z,81.01
2019-05-05T04:22:54.217Z,80.72
2019-05-05T04:23:33.479Z,81.29
2019-05-05T04:24:14.528Z,80.44
2019-05-05T04:24:54.182Z,80.44
2019-05-05T04:25:34.910Z,79.77
2019-05-05T04:26:14.594Z,79.77
2019-05-05T04:26:54.910Z,80.53
2019-05-05T04:27:35.295Z,80.34
2019-05-05T04:28:15.686Z,80.05
2019-05-05T05:08:21.572Z,83.44
2019-05-05T05:09:04.156Z,83.62
2019-05-05T05:09:44.476Z,84.2
2019-05-05T05:10:25.885Z,84.29
2019-05-05T05:11:06.227Z,83.82
2019-05-05T05:11:46.575Z,83.72
2019-05-05T05:12:27.183Z,84.01
2019-05-05T05:13:07.583Z,84.01
2019-05-05T05:13:47.952Z,84.2
2019-05-05T05:14:28.633Z,83.86
2019-05-05T05:20:36.004Z,83.1
2019-05-05T05:22:54.242Z,82.81
2019-05-05T05:23:46.155Z,82.24
2019-05-05T05:25:47.626Z,81.71
2019-05-05T05:26:28.083Z,81.14
2019-05-05T11:06:54.596Z,49.1
2019-05-05T11:07:35.470Z,49.74
2019-05-05T11:08:17.576Z,50.9
2019-05-05T11:08:58.170Z,51.16
2019-05-05T11:09:38.464Z,50.29
2019-05-05T11:10:18.970Z,50.46
2019-05-05T11:11:04.187Z,52.76
2019-05-05T11:11:43.899Z,53.79
2019-05-05T11:12:24.656Z,55.13
2019-05-05T11:13:04.346Z,55.33
2019-05-05T11:14:25.198Z,55.58
2019-05-05T11:15:05.597Z,54.53
2019-05-05T11:15:46.159Z,54.44
2019-05-05T11:16:32.261Z,55.08
2019-05-05T11:17:14.617Z,56.71
2019-05-05T11:17:54.870Z,55.36
2019-05-05T11:18:35.318Z,55.75
2019-05-05T11:19:17.518Z,54.99
2019-05-05T11:19:57.853Z,55.18
2019-05-05T11:20:40.654Z,54.6
2019-05-05T11:21:21.143Z,53.36
2019-05-05T11:22:02.636Z,53.86
2019-05-05T11:22:44.905Z,56.16
2019-05-05T11:23:25.270Z,56.16
2019-05-05T11:24:05.666Z,55.4
2019-05-05T11:24:56.986Z,56.74
2019-05-05T11:25:26.504Z,56.57
2019-05-05T11:26:06.837Z,55.62
2019-05-05T11:26:50.693Z,52.38
2019-05-05T11:27:31.164Z,52.19
2019-05-05T11:28:11.510Z,52.5
2019-05-05T11:28:53.990Z,51.18
2019-05-05T11:29:34.331Z,48.11
2019-05-05T11:30:14.722Z,47.25
2019-05-05T11:30:55.148Z,47.94
2019-05-05T11:31:35.596Z,45.35
2019-05-05T11:32:17.813Z,45.92
2019-05-05T11:33:15.228Z,47.85
2019-05-05T11:33:55.591Z,47.85
2019-05-05T11:34:36.006Z,48.64
2019-05-05T11:35:16.376Z,45.56
2019-05-05T11:35:56.938Z,46.33
2019-05-05T11:36:37.353Z,46.43
2019-05-05T11:37:59.050Z,43.84
2019-05-05T11:38:41.387Z,42.58
2019-05-05T11:39:20.831Z,41.72
2019-05-05T11:40:01.184Z,42.41
2019-05-05T11:40:43.897Z,42.5
2019-05-05T11:41:24.218Z,42.03
2019-05-05T11:42:04.350Z,41.16
2019-05-05T11:42:43.447Z,41.16
2019-05-05T11:43:24.596Z,39.26
2019-05-05T11:44:04.448Z,40.12
2019-05-05T11:45:25.257Z,40.34
2019-05-05T11:46:07.301Z,38.02
2019-05-05T11:46:47.750Z,36.19
2019-05-05T11:48:08.581Z,37.37
2019-05-05T11:48:49.037Z,37.18
2019-05-05T11:49:29.365Z,37.74
2019-05-05T11:50:10.136Z,37.93
2019-05-05T11:50:51.314Z,37.95
2019-05-05T11:51:31.724Z,39.2
2019-05-05T11:52:12.476Z,39.01
2019-05-05T11:52:54.456Z,39.01
2019-05-05T11:53:34.041Z,38.91
2019-05-05T11:54:14.227Z,38.04
2019-05-05T11:55:08.164Z,37.74
2019-05-05T11:57:10.547Z,38.02
2019-05-05T11:57:51.175Z,38.51
2019-05-05T11:58:34.167Z,37.83
2019-05-05T11:59:14.614Z,37.95
2019-05-05T11:59:54.876Z,38.04
2019-05-05T12:00:35.162Z,37.85
2019-05-05T12:01:15.599Z,36.69
2019-05-05T12:01:55.946Z,36.89
2019-05-05T12:02:36.396Z,36.02
2019-05-05T12:03:18.879Z,37.18
2019-05-05T12:03:59.232Z,35.81
2019-05-05T12:04:39.626Z,36.58
2019-05-05T12:06:03.769Z,36.58
2019-05-05T12:06:44.030Z,36.1
2019-05-05T12:07:23.691Z,36
2019-05-05T12:08:45.726Z,37.76
2019-05-05T12:09:24.720Z,37.76
2019-05-05T12:10:03.955Z,38.14
2019-05-05T12:10:44.430Z,38.91
2019-05-05T12:11:25.446Z,38.72
2019-05-05T12:12:08.006Z,38.14
2019-05-05T12:12:48.423Z,38.14
2019-05-05T12:13:29.147Z,37.85
2019-05-05T12:14:11.232Z,37.85
2019-05-05T12:14:53.717Z,37.76
2019-05-05T12:15:33.658Z,37.27
2019-05-05T12:16:54.004Z,38.14
2019-05-05T12:17:34.364Z,38.45
2019-05-05T12:18:14.755Z,39.31
2019-05-05T12:18:57.666Z,38.35
2019-05-05T12:19:38.116Z,37.89
2019-05-05T12:20:19.647Z,37.89
2019-05-05T12:21:00.660Z,37.29
2019-05-05T12:21:44.162Z,37.58
2019-05-05T12:22:23.685Z,37.01
2019-05-05T12:23:04.677Z,37.01
2019-05-05T12:23:44.650Z,37.01
2019-05-05T12:24:25.075Z,37.68
2019-05-05T12:25:06.395Z,38.35
2019-05-05T12:25:48.975Z,38.06
2019-05-05T12:26:30.203Z,37.58
2019-05-05T12:27:10.703Z,37.1
2019-05-05T12:27:51.211Z,37.29
2019-05-05T12:28:31.600Z,36.63
2019-05-05T12:29:13.964Z,36.15
2019-05-05T12:29:54.365Z,36.13
2019-05-05T12:33:28.401Z,36.81
2019-05-05T12:34:08.988Z,36.99
2019-05-05T12:34:50.080Z,36.61
2019-05-05T12:35:30.583Z,36.81
2019-05-05T12:36:11.839Z,37.18
2019-05-05T12:37:35.243Z,37.35
2019-05-05T12:38:15.910Z,37.16
2019-05-05T12:38:58.053Z,37.74
2019-05-05T12:39:44.208Z,38.02
2019-05-05T12:40:24.608Z,38.02
2019-05-05T12:41:07.911Z,37.83
2019-05-05T12:41:49.820Z,37.08
2019-05-05T12:42:31.814Z,36.99
2019-05-05T12:43:14.165Z,37.18
2019-05-05T12:43:56.679Z,37.18
2019-05-05T12:45:19.462Z,36.81
2019-05-05T12:46:00.264Z,36.33
2019-05-05T12:46:44.182Z,35.65
2019-05-05T12:47:25.024Z,36.04
2019-05-05T12:48:05.436Z,36.13
2019-05-05T12:48:48.338Z,35.86
2019-05-05T12:49:28.859Z,35.19
2019-05-05T12:50:53.422Z,35.67
2019-05-05T12:51:34.242Z,35.38
2019-05-05T12:52:14.348Z,35.48
2019-05-05T12:52:56.972Z,35.58
2019-05-05T12:53:38.232Z,35.48
2019-05-05T12:54:19.076Z,35.28
2019-05-05T12:55:02.794Z,35.19
2019-05-05T12:55:44.536Z,35
2019-05-05T12:56:24.890Z,35.58
2019-05-05T12:57:09.085Z,35.56
2019-05-05T12:57:50.494Z,35.56
2019-05-05T12:58:33.616Z,35.19
2019-05-05T12:59:14.249Z,35.36
2019-05-05T12:59:54.123Z,35.28
2019-05-05T13:00:34.951Z,35.28
2019-05-05T13:01:15.326Z,35.27
2019-05-05T13:01:55.660Z,35.1
2019-05-05T13:02:36.221Z,35.1
2019-05-05T13:03:16.839Z,34.42
2019-05-05T13:03:57.566Z,35.17
2019-05-05T13:04:38.215Z,35.48
2019-05-05T13:05:19.047Z,34.9
2019-05-05T13:05:59.228Z,34.13
2019-05-05T13:06:39.720Z,33.94
2019-05-05T13:07:20.172Z,34.24
2019-05-05T13:08:40.875Z,33.86
2019-05-05T13:09:21.453Z,34.53
2019-05-05T13:10:04.784Z,35.02
2019-05-05T13:10:44.597Z,35.4
2019-05-05T13:11:26.336Z,35.21
2019-05-05T13:12:07.382Z,35.38
2019-05-05T13:12:47.916Z,35.5
2019-05-05T13:23:26.973Z,46.72
2019-05-05T13:24:09.237Z,49.87
2019-05-05T13:24:54.019Z,51.95
2019-05-05T13:25:35.362Z,54.04
2019-05-05T13:26:15.784Z,54.58
2019-05-05T13:26:57.726Z,54.85
2019-05-05T13:27:38.270Z,56.93
2019-05-05T13:28:18.736Z,59.97
2019-05-05T13:28:59.238Z,62.93
2019-05-05T13:29:39.585Z,64.05
2019-05-05T13:30:20.124Z,65.65
2019-05-05T13:31:01.388Z,67.34
2019-05-05T13:31:41.721Z,69.25
2019-05-05T13:32:22.107Z,70.59
2019-05-05T13:33:03.662Z,70.94
2019-05-05T13:33:44.192Z,72.47
2019-05-05T13:34:23.420Z,72.47
2019-05-05T13:35:04.093Z,72.91
2019-05-05T13:35:44.259Z,75.78
2019-05-05T13:36:24.619Z,74.82
2019-05-05T13:37:05.021Z,73.67
2019-05-05T13:37:47.286Z,75.2
2019-05-05T13:38:27.775Z,75.68
2019-05-05T13:39:10.678Z,75.49
2019-05-05T13:39:51.106Z,75.2
2019-05-05T13:40:31.443Z,75.26
2019-05-05T13:41:15.130Z,76.5
2019-05-05T13:41:55.465Z,74.82
2019-05-05T13:42:35.887Z,75.64
2019-05-05T13:43:16.315Z,77.74
2019-05-05T13:43:56.656Z,75.54
2019-05-05T13:44:37.079Z,76.4
2019-05-05T13:45:17.436Z,77.26
2019-05-05T13:45:57.887Z,75.74
2019-05-05T13:46:38.274Z,76.69
2019-05-05T13:47:18.645Z,77.45
2019-05-05T13:47:59.026Z,77.94
2019-05-05T13:48:39.540Z,77.45
2019-05-05T13:49:19.849Z,77.74
2019-05-05T13:50:40.626Z,76.88
2019-05-05T13:51:21.030Z,76.5
2019-05-05T13:52:01.427Z,76.79
2019-05-05T13:52:44.026Z,80.51
2019-05-05T13:53:23.647Z,81.56
2019-05-05T13:54:02.770Z,80.41
2019-05-05T13:54:43.847Z,77.74
2019-05-05T13:55:24.080Z,76.5
2019-05-05T13:56:11.449Z,73.88
2019-05-05T13:56:44.314Z,75.74
2019-05-05T13:57:24.765Z,77.45
2019-05-05T13:58:05.103Z,78.6
2019-05-05T13:58:45.567Z,78.31
2019-05-05T13:59:26.015Z,78.6
2019-05-05T14:00:06.381Z,77.84
2019-05-05T14:00:46.775Z,77.17
2019-05-05T14:01:27.189Z,76.03
2019-05-05T14:02:07.895Z,79.56
2019-05-05T14:03:29.188Z,80.17
2019-05-05T14:04:09.658Z,82.84
2019-05-05T14:04:50.023Z,79.41
2019-05-05T14:06:10.955Z,76.64
2019-05-05T14:06:54.371Z,81.65
2019-05-05T14:07:34.302Z,79.25
2019-05-05T14:08:14.779Z,77.44
2019-05-05T14:08:54.726Z,73.9
2019-05-05T14:09:37.753Z,74.66
2019-05-05T14:10:17.544Z,73.8
2019-05-05T14:11:00.469Z,77.92
2019-05-05T14:11:44.676Z,77.25
2019-05-05T14:12:25.318Z,80.3
2019-05-05T14:13:10.127Z,75.24
2019-05-05T14:14:04.335Z,72.47
2019-05-05T14:14:44.755Z,72.37
2019-05-05T14:15:25.166Z,69.79
2019-05-05T14:16:05.827Z,70.27
2019-05-05T14:16:46.592Z,69.7
2019-05-05T14:17:27.075Z,69.98
2019-05-05T14:18:48.001Z,64.53
2019-05-05T14:19:28.671Z,68.45
2019-05-05T14:20:11.845Z,71.03
2019-05-05T14:21:30.008Z,71.03
2019-05-05T14:29:28.197Z,63.67
2019-05-05T14:30:08.426Z,63.96
2019-05-05T14:30:48.846Z,64.82
2019-05-05T14:31:29.307Z,66.44
2019-05-05T14:32:09.846Z,66.06
2019-05-05T14:32:50.210Z,65.77
2019-05-05T14:33:30.819Z,66.09
2019-05-05T14:34:54.186Z,65.14
2019-05-05T14:35:34.199Z,63.42
2019-05-05T14:36:13.739Z,65.04
2019-05-05T14:36:53.762Z,64.28
2019-05-05T14:41:31.764Z,67.53
2019-05-05T14:42:14.695Z,65.04
2019-05-05T14:42:54.268Z,63.7
2019-05-05T14:43:35.279Z,63.89
2019-05-05T14:44:16.612Z,65.52
2019-05-05T14:44:57.020Z,69.06
2019-05-05T14:45:38.069Z,69.12
2019-05-05T14:46:18.686Z,69.79
2019-05-05T14:46:59.150Z,71.99
2019-05-05T14:47:39.941Z,71.61
2019-05-05T14:48:21.233Z,69.89
2019-05-05T14:49:01.513Z,70.07
2019-05-05T14:49:44.301Z,74.19
2019-05-05T14:50:24.255Z,71.42
2019-05-05T14:51:04.942Z,71.61
2019-05-05T14:51:45.678Z,71.03
2019-05-05T14:52:27.109Z,73.61
2019-05-05T14:53:08.161Z,71.7
2019-05-05T14:53:49.339Z,69.98
2019-05-05T14:54:30.078Z,69.02
2019-05-05T14:55:14.664Z,68.8
2019-05-05T14:55:55.663Z,68.9
2019-05-05T14:58:11.672Z,72.39
2019-05-05T14:58:54.434Z,74.11
2019-05-05T14:59:37.089Z,76.31
2019-05-05T15:00:17.230Z,78.79
2019-05-05T15:00:57.763Z,77.45
2019-05-05T15:01:38.390Z,75.74
2019-05-05T15:02:19.653Z,76.98
2019-05-05T15:03:01.247Z,77.01
2019-05-05T15:03:42.075Z,75.87
2019-05-05T15:04:23.875Z,73.23
2019-05-05T15:05:03.792Z,73.04
2019-05-05T15:05:44.426Z,72.66
2019-05-05T15:06:25.652Z,72.08
2019-05-05T15:07:05.398Z,69.89
2019-05-05T15:07:46.114Z,69.44
2019-05-05T15:08:27.408Z,69.35
2019-05-05T15:09:09.010Z,67.63
2019-05-05T15:09:49.961Z,68.04
2019-05-05T15:10:30.359Z,65.94
2019-05-05T15:11:10.799Z,66.03
2019-05-05T15:11:53.612Z,65.88
2019-05-05T15:12:31.677Z,65.01
2019-05-05T15:13:54.043Z,64.92
2019-05-05T15:14:33.182Z,64.53
2019-05-05T15:15:14.357Z,64.18
2019-05-05T15:16:34.777Z,62.74
2019-05-05T15:17:15.036Z,63.6
2019-05-05T15:17:55.554Z,63.22
2019-05-05T15:19:16.509Z,61.21
2019-05-05T15:19:57.535Z,61.88
2019-05-05T15:20:37.938Z,62.26
2019-05-05T15:21:18.657Z,61.4
2019-05-05T15:21:59.195Z,62.26
2019-05-05T15:22:43.634Z,61.5
2019-05-05T15:23:24.065Z,61.69
2019-05-05T15:24:04.996Z,61.5
2019-05-05T15:24:45.750Z,61.5
2019-05-05T15:25:26.481Z,61.21
2019-05-05T15:26:08.076Z,61.11
2019-05-05T15:26:52.018Z,61.76
2019-05-05T15:27:30.986Z,61.37
2019-05-05T15:28:13.645Z,61.57
2019-05-05T15:30:54.279Z,62.62
2019-05-05T15:31:34.170Z,62.04
2019-05-05T15:32:14.898Z,61.47
2019-05-05T15:32:54.153Z,60.99
2019-05-05T15:33:34.350Z,60.19
2019-05-05T15:34:15.952Z,60.8
2019-05-05T15:34:56.460Z,61.05
2019-05-05T15:35:37.105Z,61.05
2019-05-05T15:36:17.954Z,62.01
2019-05-05T15:36:58.076Z,62.3
2019-05-05T15:37:41.254Z,62.2
2019-05-05T15:38:21.507Z,63.06
2019-05-05T15:40:41.686Z,62.77
2019-05-05T15:41:23.608Z,63.16
2019-05-05T15:42:04.589Z,62.4
2019-05-05T15:42:45.257Z,63.06
2019-05-05T15:43:25.705Z,62.3
2019-05-05T15:44:06.011Z,62.11
2019-05-05T15:44:46.379Z,60.48
2019-05-05T15:45:27.299Z,61.05
2019-05-05T15:46:08.502Z,61.44
2019-05-05T15:46:48.685Z,60.67
2019-05-05T15:47:29.042Z,61.34
2019-05-05T15:48:09.396Z,60.48
2019-05-05T15:48:49.783Z,61.25
2019-05-05T15:49:30.166Z,62.2
2019-05-05T15:50:10.709Z,60.67
2019-05-05T15:50:51.075Z,60.38
2019-05-05T15:51:31.446Z,60.38
2019-05-05T15:52:13.664Z,60.99
2019-05-05T15:52:52.202Z,60.51
2019-05-05T15:53:34.567Z,61.28
2019-05-05T15:54:15.032Z,60.89
2019-05-05T15:55:35.903Z,60.7
2019-05-05T15:56:16.175Z,60.51
2019-05-05T15:57:05.275Z,59.77
2019-05-05T15:57:36.943Z,59.39
2019-05-05T15:58:20.800Z,59.97
2019-05-05T15:59:00.154Z,59.87
2019-05-05T15:59:41.280Z,58.24
2019-05-05T16:01:55.868Z,58.24
2019-05-05T16:02:36.881Z,56.42
2019-05-05T16:03:17.259Z,56.04
2019-05-05T16:03:59.512Z,54.79
2019-05-05T16:04:39.979Z,53.93
2019-05-05T16:05:20.315Z,54.12
2019-05-05T16:08:20.129Z,54.15
2019-05-05T16:09:00.573Z,52.4
2019-05-05T16:09:44.331Z,52.01
2019-05-05T16:10:25.071Z,53.64
2019-05-05T16:11:03.873Z,54.5
2019-05-05T16:11:46.600Z,53.93
2019-05-05T16:12:31.909Z,54.03
2019-05-05T16:13:05.610Z,53.16
2019-05-05T16:13:46.402Z,53.36
2019-05-05T16:14:26.745Z,54.32
2019-05-05T16:15:07.079Z,53.83
2019-05-05T16:15:47.617Z,53.74
2019-05-05T16:16:29.852Z,53.64
2019-05-05T16:17:10.112Z,53.83
2019-05-05T16:17:50.645Z,54.03
2019-05-05T16:18:31.350Z,53.74
2019-05-05T16:19:53.665Z,55.08
2019-05-05T16:20:35.833Z,55.27
2019-05-05T16:21:14.091Z,55.15
2019-05-05T16:22:34.769Z,55.34
2019-05-05T16:23:16.008Z,55.53
2019-05-05T16:23:56.510Z,56.1
2019-05-05T16:24:37.000Z,56.17
2019-05-05T16:25:19.656Z,57.23
2019-05-05T16:26:01.016Z,57.04
2019-05-05T16:26:42.556Z,57.58
2019-05-05T16:27:24.895Z,57.68
2019-05-05T16:28:05.532Z,58.44
2019-05-05T16:28:44.704Z,59.3
2019-05-05T16:29:25.068Z,59.49
2019-05-05T16:30:06.385Z,59.49
2019-05-05T16:30:48.857Z,59.78
2019-05-05T17:10:05.857Z,62.84
2019-05-05T17:10:43.503Z,62.84
2019-05-05T17:11:24.498Z,61.25
2019-05-05T17:12:05.056Z,60.17
2019-05-05T17:12:45.494Z,60.17
2019-05-05T17:13:25.978Z,60.27
2019-05-05T17:14:13.347Z,60.36
2019-05-05T17:14:55.652Z,60.07
2019-05-05T17:15:38.107Z,59.69
2019-05-05T17:16:18.949Z,59.59
2019-05-05T17:16:59.574Z,60.36
2019-05-05T17:17:39.992Z,60.55
2019-05-05T17:18:32.471Z,60.07
2019-05-05T17:19:01.485Z,60.07
2019-05-05T17:19:41.934Z,60.77
2019-05-05T17:20:25.110Z,60.49
2019-05-05T17:21:05.720Z,60.2
2019-05-05T17:21:46.951Z,59.81
2019-05-05T17:22:27.338Z,60.1
2019-05-05T17:23:07.866Z,58
2019-05-05T17:23:48.682Z,57.71
2019-05-05T17:24:29.039Z,58.38
2019-05-05T17:25:09.786Z,57.62
2019-05-05T17:25:50.195Z,58.22